createdAt,value
2022-08-02T00:05:34.901Z,100
2022-08-02T00:11:15.013Z,98
2022-08-02T00:28:15.621Z,100
2022-08-02T00:34:38.511Z,100
2022-08-02T00:40:19.108Z,98
2022-08-02T00:46:04.555Z,92
2022-08-02T00:51:44.942Z,108
2022-08-02T00:57:25.094Z,100
2022-08-02T01:03:07.202Z,98
2022-08-02T01:08:47.668Z,96
2022-08-02T01:14:29.069Z,104
2022-08-02T01:20:09.215Z,100
2022-08-02T01:25:49.193Z,94
2022-08-02T01:31:29.531Z,100
2022-08-02T01:38:42.308Z,106
2022-08-02T01:44:28.226Z,96
2022-08-02T01:50:08.154Z,124
2022-08-02T01:56:01.983Z,98
2022-08-02T02:07:23.963Z,100
2022-08-02T02:13:04.257Z,104
2022-08-02T02:24:24.630Z,94
2022-08-02T02:30:04.939Z,104
2022-08-02T02:41:25.342Z,128
2022-08-02T02:47:06.000Z,90
2022-08-02T02:52:46.586Z,90
2022-08-02T02:58:29.662Z,106
2022-08-02T03:04:19.981Z,94
2022-08-02T03:10:00.561Z,84
2022-08-02T03:15:40.803Z,94
2022-08-02T03:21:20.972Z,90
2022-08-02T03:27:01.521Z,98
2022-08-02T03:32:41.772Z,100
2022-08-02T03:38:21.994Z,94
2022-08-02T03:49:49.474Z,100
2022-08-02T03:55:29.592Z,108
2022-08-02T04:01:11.214Z,100
2022-08-02T04:06:53.012Z,112
2022-08-02T04:12:33.259Z,102
2022-08-02T04:18:13.377Z,94
2022-08-02T04:23:53.625Z,106
2022-08-02T04:29:34.078Z,94
2022-08-02T04:35:22.119Z,100
2022-08-02T04:41:03.009Z,136
2022-08-02T04:46:43.618Z,100
2022-08-02T04:52:24.385Z,100
2022-08-02T04:58:41.534Z,96
2022-08-02T05:04:22.834Z,100
2022-08-02T05:10:04.720Z,106
2022-08-02T05:21:26.056Z,92
2022-08-02T05:27:22.661Z,98
2022-08-02T05:33:03.921Z,102
2022-08-02T05:38:50.525Z,100
2022-08-02T05:44:30.640Z,90
2022-08-02T06:01:33.416Z,98
2022-08-02T06:07:15.247Z,104
2022-08-02T06:12:56.421Z,106
2022-08-02T06:18:36.983Z,102
2022-08-02T06:29:57.334Z,94
2022-08-02T06:35:38.196Z,86
2022-08-02T06:41:18.673Z,102
2022-08-02T06:47:14.996Z,100
2022-08-02T06:52:55.232Z,82
2022-08-02T06:58:35.405Z,94
2022-08-02T07:04:20.800Z,98
2022-08-02T07:10:02.527Z,80
2022-08-02T07:15:50.034Z,104
2022-08-02T07:22:02.442Z,76
2022-08-02T07:45:16.584Z,20
2022-08-02T07:50:56.412Z,16
2022-08-02T08:01:47.311Z,18
2022-08-02T08:07:27.519Z,12
2022-08-02T08:13:09.603Z,20
2022-08-02T08:18:49.823Z,24
2022-08-02T08:24:30.696Z,40
2022-08-02T08:30:10.318Z,10
2022-08-02T08:35:50.934Z,32
2022-08-02T08:41:31.712Z,6
2022-08-02T08:47:12.101Z,8
2022-08-02T08:52:52.645Z,4
2022-08-02T08:58:32.882Z,100
2022-08-02T09:04:15.707Z,102
2022-08-02T09:09:55.801Z,2
2022-08-02T09:15:36.395Z,52
2022-08-02T09:21:17.973Z,82
2022-08-02T09:26:59.736Z,0
2022-08-02T09:37:49.196Z,0
2022-08-02T09:43:28.910Z,0
2022-08-02T09:49:10.730Z,0
2022-08-02T09:54:51.545Z,26
2022-08-02T10:00:53.958Z,0
2022-08-02T10:06:34.853Z,2
2022-08-02T10:12:16.800Z,4
2022-08-02T10:23:38.051Z,2
2022-08-02T10:35:27.526Z,0
2022-08-02T10:41:07.911Z,0
2022-08-02T10:46:48.781Z,2
2022-08-02T10:52:43.237Z,2
2022-08-02T10:58:58.337Z,80
2022-08-02T11:04:41.717Z,2
2022-08-02T11:10:22.102Z,0
2022-08-02T11:16:12.651Z,4
2022-08-02T11:27:02.998Z,4
2022-08-02T11:32:44.699Z,2
2022-08-02T11:48:50.542Z,4
2022-08-02T12:00:38.255Z,218
2022-08-02T12:16:21.775Z,4
2022-08-02T12:22:02.764Z,0
2022-08-02T12:27:58.759Z,4
2022-08-02T12:33:42.771Z,2
2022-08-02T12:39:23.270Z,2
2022-08-02T12:50:55.807Z,0
2022-08-02T12:56:36.181Z,6
2022-08-02T13:02:30.021Z,0
2022-08-02T13:08:10.453Z,0
2022-08-02T13:13:58.801Z,0
2022-08-02T13:19:39.429Z,0
2022-08-02T13:25:23.157Z,0
2022-08-02T14:27:29.200Z,2
2022-08-02T14:33:09.627Z,0
2022-08-02T14:38:58.512Z,8
2022-08-02T14:44:38.887Z,2
2022-08-02T14:50:19.473Z,4
2022-08-02T14:56:11.595Z,0
2022-08-02T15:01:53.588Z,0
2022-08-02T15:58:23.889Z,98
2022-08-02T16:04:04.097Z,100
2022-08-02T16:09:43.985Z,96
2022-08-02T16:15:24.035Z,92
2022-08-02T16:21:04.383Z,96
2022-08-02T16:26:44.720Z,96
2022-08-02T16:32:24.934Z,94
2022-08-02T16:38:04.986Z,94
2022-08-02T16:43:45.299Z,98
2022-08-02T16:50:15.369Z,98
2022-08-02T16:56:08.188Z,98
2022-08-02T17:30:45.731Z,84
2022-08-02T17:36:25.728Z,94
2022-08-02T17:42:06.041Z,94
2022-08-02T17:48:15.104Z,98
2022-08-02T17:54:01.813Z,100
2022-08-02T18:00:04.810Z,92
2022-08-02T18:05:55.998Z,98
2022-08-02T18:11:57.079Z,74
2022-08-02T18:17:42.577Z,78
2022-08-02T18:23:23.941Z,80
2022-08-02T18:29:05.818Z,94
2022-08-02T18:34:52.906Z,78
2022-08-02T18:46:21.726Z,98
2022-08-02T18:52:02.532Z,92
2022-08-02T18:58:21.092Z,86
2022-08-02T19:04:03.537Z,88
2022-08-02T19:09:46.697Z,88
2022-08-02T19:15:26.925Z,86
2022-08-02T22:41:09.402Z,80
2022-08-02T22:46:50.979Z,78
2022-08-02T22:52:31.909Z,100
2022-08-02T22:58:13.723Z,92
2022-08-02T23:03:53.896Z,98
2022-08-02T23:09:33.842Z,96
2022-08-02T23:15:13.958Z,70
2022-08-02T23:32:17.699Z,94
2022-08-02T23:44:15.919Z,104
2022-08-02T23:49:56.612Z,104
2022-08-02T23:55:36.980Z,92
